sensor_id;sensor_type;location;lat;lon;timestamp;pressure;altitude;pressure_sealevel;temperature
74321;BMP280;62738;45.772;4.804;2023-02-23T00:00:14;99455.28;;;11.77
74321;BMP280;62738;45.772;4.804;2023-02-23T00:02:48;99455.34;;;11.86
74321;BMP280;62738;45.772;4.804;2023-02-23T00:05:16;99459.13;;;11.81
74321;BMP280;62738;45.772;4.804;2023-02-23T00:07:43;99454.91;;;11.90
74321;BMP280;62738;45.772;4.804;2023-02-23T00:10:12;99456.53;;;11.93
74321;BMP280;62738;45.772;4.804;2023-02-23T00:12:40;99452.81;;;12.17
74321;BMP280;62738;45.772;4.804;2023-02-23T00:15:08;99448.44;;;12.24
74321;BMP280;62738;45.772;4.804;2023-02-23T00:17:35;99447.84;;;12.16
74321;BMP280;62738;45.772;4.804;2023-02-23T00:20:09;99445.22;;;12.18
74321;BMP280;62738;45.772;4.804;2023-02-23T00:22:40;99444.97;;;11.97
74321;BMP280;62738;45.772;4.804;2023-02-23T00:25:08;99443.78;;;11.80
74321;BMP280;62738;45.772;4.804;2023-02-23T00:27:37;99451.78;;;11.76
74321;BMP280;62738;45.772;4.804;2023-02-23T00:30:13;99441.81;;;12.10
74321;BMP280;62738;45.772;4.804;2023-02-23T00:32:41;99444.84;;;11.95
74321;BMP280;62738;45.772;4.804;2023-02-23T00:35:08;99446.13;;;11.93
74321;BMP280;62738;45.772;4.804;2023-02-23T00:37:38;99452.00;;;11.98
74321;BMP280;62738;45.772;4.804;2023-02-23T00:40:04;99447.63;;;12.04
74321;BMP280;62738;45.772;4.804;2023-02-23T00:42:39;99447.31;;;11.90
74321;BMP280;62738;45.772;4.804;2023-02-23T00:45:06;99451.00;;;12.03
74321;BMP280;62738;45.772;4.804;2023-02-23T00:47:41;99437.97;;;11.96
74321;BMP280;62738;45.772;4.804;2023-02-23T00:50:11;99439.34;;;11.77
74321;BMP280;62738;45.772;4.804;2023-02-23T00:52:39;99443.25;;;12.11
74321;BMP280;62738;45.772;4.804;2023-02-23T00:55:12;99442.19;;;11.97
74321;BMP280;62738;45.772;4.804;2023-02-23T00:57:41;99440.91;;;12.07
74321;BMP280;62738;45.772;4.804;2023-02-23T01:00:10;99440.56;;;11.93
74321;BMP280;62738;45.772;4.804;2023-02-23T01:02:46;99449.16;;;12.24
74321;BMP280;62738;45.772;4.804;2023-02-23T01:05:14;99435.09;;;12.22
74321;BMP280;62738;45.772;4.804;2023-02-23T01:07:42;99439.78;;;12.20
74321;BMP280;62738;45.772;4.804;2023-02-23T01:10:12;99441.03;;;12.00
74321;BMP280;62738;45.772;4.804;2023-02-23T01:12:51;99428.69;;;11.83
74321;BMP280;62738;45.772;4.804;2023-02-23T01:15:19;99433.63;;;11.75
74321;BMP280;62738;45.772;4.804;2023-02-23T01:17:46;99431.06;;;11.87
74321;BMP280;62738;45.772;4.804;2023-02-23T01:20:15;99424.00;;;11.76
74321;BMP280;62738;45.772;4.804;2023-02-23T01:22:47;99431.56;;;11.66
74321;BMP280;62738;45.772;4.804;2023-02-23T01:25:14;99436.06;;;11.62
74321;BMP280;62738;45.772;4.804;2023-02-23T01:27:42;99427.31;;;11.65
74321;BMP280;62738;45.772;4.804;2023-02-23T01:30:13;99420.00;;;11.70
74321;BMP280;62738;45.772;4.804;2023-02-23T01:33:06;99421.84;;;11.84
74321;BMP280;62738;45.772;4.804;2023-02-23T01:35:34;99426.63;;;11.74
74321;BMP280;62738;45.772;4.804;2023-02-23T01:38:01;99432.06;;;11.91
74321;BMP280;62738;45.772;4.804;2023-02-23T01:40:29;99426.53;;;11.91
74321;BMP280;62738;45.772;4.804;2023-02-23T01:43:24;99429.31;;;11.91
74321;BMP280;62738;45.772;4.804;2023-02-23T01:46:20;99425.09;;;12.00
74321;BMP280;62738;45.772;4.804;2023-02-23T01:49:17;99416.88;;;11.92
74321;BMP280;62738;45.772;4.804;2023-02-23T01:52:15;99420.19;;;11.72
74321;BMP280;62738;45.772;4.804;2023-02-23T01:55:12;99424.16;;;11.78
74321;BMP280;62738;45.772;4.804;2023-02-23T01:58:09;99413.81;;;11.62
74321;BMP280;62738;45.772;4.804;2023-02-23T02:03:45;99409.63;;;11.70
74321;BMP280;62738;45.772;4.804;2023-02-23T02:06:16;99411.84;;;11.72
74321;BMP280;62738;45.772;4.804;2023-02-23T02:08:46;99409.47;;;11.59
74321;BMP280;62738;45.772;4.804;2023-02-23T02:11:16;99409.75;;;11.63
74321;BMP280;62738;45.772;4.804;2023-02-23T02:13:59;99400.16;;;11.73
74321;BMP280;62738;45.772;4.804;2023-02-23T02:19:58;99401.91;;;11.78
74321;BMP280;62738;45.772;4.804;2023-02-23T02:22:42;99400.75;;;11.91
74321;BMP280;62738;45.772;4.804;2023-02-23T02:25:48;99393.88;;;11.82
74321;BMP280;62738;45.772;4.804;2023-02-23T02:35:13;99387.47;;;11.89
74321;BMP280;62738;45.772;4.804;2023-02-23T02:40:40;99389.25;;;11.95
74321;BMP280;62738;45.772;4.804;2023-02-23T02:43:30;99385.88;;;11.96
74321;BMP280;62738;45.772;4.804;2023-02-23T02:46:08;99379.59;;;12.05
74321;BMP280;62738;45.772;4.804;2023-02-23T02:49:09;99371.81;;;12.04
74321;BMP280;62738;45.772;4.804;2023-02-23T02:54:24;99369.19;;;11.86
74321;BMP280;62738;45.772;4.804;2023-02-23T02:56:56;99369.63;;;11.92
74321;BMP280;62738;45.772;4.804;2023-02-23T02:59:23;99372.03;;;11.60
74321;BMP280;62738;45.772;4.804;2023-02-23T03:02:15;99366.94;;;11.39
74321;BMP280;62738;45.772;4.804;2023-02-23T03:05:01;99365.03;;;11.59
74321;BMP280;62738;45.772;4.804;2023-02-23T03:16:52;99358.84;;;11.50
74321;BMP280;62738;45.772;4.804;2023-02-23T03:19:57;99355.84;;;11.39
74321;BMP280;62738;45.772;4.804;2023-02-23T03:23:18;99351.00;;;11.30
74321;BMP280;62738;45.772;4.804;2023-02-23T03:26:14;99350.78;;;11.45
74321;BMP280;62738;45.772;4.804;2023-02-23T03:32:19;99343.25;;;11.28
74321;BMP280;62738;45.772;4.804;2023-02-23T03:38:15;99347.88;;;11.62
74321;BMP280;62738;45.772;4.804;2023-02-23T03:41:04;99347.22;;;11.35
74321;BMP280;62738;45.772;4.804;2023-02-23T03:43:57;99364.06;;;11.46
74321;BMP280;62738;45.772;4.804;2023-02-23T03:46:45;99357.47;;;11.78
74321;BMP280;62738;45.772;4.804;2023-02-23T03:49:37;99351.97;;;11.52
74321;BMP280;62738;45.772;4.804;2023-02-23T03:52:28;99349.50;;;11.56
74321;BMP280;62738;45.772;4.804;2023-02-23T03:55:18;99353.91;;;11.68
74321;BMP280;62738;45.772;4.804;2023-02-23T03:58:06;99343.41;;;11.76
74321;BMP280;62738;45.772;4.804;2023-02-23T04:00:55;99339.81;;;11.47
74321;BMP280;62738;45.772;4.804;2023-02-23T04:03:43;99348.56;;;11.43
74321;BMP280;62738;45.772;4.804;2023-02-23T04:06:35;99337.31;;;11.15
74321;BMP280;62738;45.772;4.804;2023-02-23T04:09:21;99341.63;;;11.25
74321;BMP280;62738;45.772;4.804;2023-02-23T04:12:13;99336.06;;;11.25
74321;BMP280;62738;45.772;4.804;2023-02-23T04:15:22;99339.16;;;11.02
74321;BMP280;62738;45.772;4.804;2023-02-23T04:17:51;99341.25;;;10.85
74321;BMP280;62738;45.772;4.804;2023-02-23T04:20:19;99334.81;;;11.09
74321;BMP280;62738;45.772;4.804;2023-02-23T04:22:45;99343.22;;;11.01
74321;BMP280;62738;45.772;4.804;2023-02-23T04:25:14;99339.69;;;10.91
74321;BMP280;62738;45.772;4.804;2023-02-23T04:27:42;99339.53;;;10.89
74321;BMP280;62738;45.772;4.804;2023-02-23T04:30:10;99344.75;;;10.85
74321;BMP280;62738;45.772;4.804;2023-02-23T04:32:37;99334.97;;;10.84
74321;BMP280;62738;45.772;4.804;2023-02-23T04:35:04;99343.13;;;10.82
74321;BMP280;62738;45.772;4.804;2023-02-23T04:37:30;99344.66;;;11.20
74321;BMP280;62738;45.772;4.804;2023-02-23T04:39:57;99339.88;;;11.30
74321;BMP280;62738;45.772;4.804;2023-02-23T04:42:24;99332.75;;;11.36
74321;BMP280;62738;45.772;4.804;2023-02-23T04:44:50;99339.34;;;11.41
74321;BMP280;62738;45.772;4.804;2023-02-23T04:47:17;99337.56;;;11.36
74321;BMP280;62738;45.772;4.804;2023-02-23T04:49:44;99333.72;;;11.31
74321;BMP280;62738;45.772;4.804;2023-02-23T04:52:10;99329.16;;;11.17
74321;BMP280;62738;45.772;4.804;2023-02-23T04:54:38;99326.22;;;11.15
74321;BMP280;62738;45.772;4.804;2023-02-23T04:57:05;99331.00;;;11.04
74321;BMP280;62738;45.772;4.804;2023-02-23T04:59:32;99329.53;;;11.03
74321;BMP280;62738;45.772;4.804;2023-02-23T05:02:00;99328.63;;;11.01
74321;BMP280;62738;45.772;4.804;2023-02-23T05:04:26;99332.13;;;10.75
74321;BMP280;62738;45.772;4.804;2023-02-23T05:06:53;99333.81;;;10.87
74321;BMP280;62738;45.772;4.804;2023-02-23T05:09:20;99329.53;;;11.03
74321;BMP280;62738;45.772;4.804;2023-02-23T05:11:46;99335.22;;;11.05
74321;BMP280;62738;45.772;4.804;2023-02-23T05:14:13;99325.81;;;10.91
74321;BMP280;62738;45.772;4.804;2023-02-23T05:16:40;99333.31;;;10.98
74321;BMP280;62738;45.772;4.804;2023-02-23T05:19:06;99335.59;;;11.19
74321;BMP280;62738;45.772;4.804;2023-02-23T05:21:33;99334.63;;;11.07
74321;BMP280;62738;45.772;4.804;2023-02-23T05:24:00;99328.09;;;10.85
74321;BMP280;62738;45.772;4.804;2023-02-23T05:26:26;99334.97;;;10.84
74321;BMP280;62738;45.772;4.804;2023-02-23T05:28:53;99333.59;;;11.02
74321;BMP280;62738;45.772;4.804;2023-02-23T05:31:22;99336.75;;;11.16
74321;BMP280;62738;45.772;4.804;2023-02-23T05:33:49;99341.44;;;11.14
74321;BMP280;62738;45.772;4.804;2023-02-23T05:36:17;99341.56;;;11.16
74321;BMP280;62738;45.772;4.804;2023-02-23T05:38:45;99339.63;;;11.08
74321;BMP280;62738;45.772;4.804;2023-02-23T05:41:14;99339.69;;;11.18
74321;BMP280;62738;45.772;4.804;2023-02-23T05:43:41;99341.97;;;11.39
74321;BMP280;62738;45.772;4.804;2023-02-23T05:46:10;99334.69;;;11.17
74321;BMP280;62738;45.772;4.804;2023-02-23T05:48:37;99341.66;;;10.98
74321;BMP280;62738;45.772;4.804;2023-02-23T05:51:07;99343.34;;;10.94
74321;BMP280;62738;45.772;4.804;2023-02-23T05:53:34;99334.03;;;11.26
74321;BMP280;62738;45.772;4.804;2023-02-23T05:56:03;99334.63;;;11.34
74321;BMP280;62738;45.772;4.804;2023-02-23T05:58:30;99327.69;;;11.16
74321;BMP280;62738;45.772;4.804;2023-02-23T06:00:57;99339.59;;;11.26
74321;BMP280;62738;45.772;4.804;2023-02-23T06:03:24;99330.88;;;10.85
74321;BMP280;62738;45.772;4.804;2023-02-23T06:05:52;99331.28;;;11.08
74321;BMP280;62738;45.772;4.804;2023-02-23T06:08:19;99341.88;;;10.93
74321;BMP280;62738;45.772;4.804;2023-02-23T06:10:46;99331.22;;;10.89
74321;BMP280;62738;45.772;4.804;2023-02-23T06:13:13;99330.13;;;10.85
74321;BMP280;62738;45.772;4.804;2023-02-23T06:15:42;99340.19;;;10.80
74321;BMP280;62738;45.772;4.804;2023-02-23T06:18:09;99340.47;;;11.01
74321;BMP280;62738;45.772;4.804;2023-02-23T06:20:36;99337.13;;;11.39
74321;BMP280;62738;45.772;4.804;2023-02-23T06:23:05;99335.56;;;11.46
74321;BMP280;62738;45.772;4.804;2023-02-23T06:25:33;99337.59;;;11.45
74321;BMP280;62738;45.772;4.804;2023-02-23T06:28:00;99340.47;;;11.38
74321;BMP280;62738;45.772;4.804;2023-02-23T06:30:26;99343.75;;;11.44
74321;BMP280;62738;45.772;4.804;2023-02-23T06:32:55;99344.16;;;11.40
74321;BMP280;62738;45.772;4.804;2023-02-23T06:35:22;99338.53;;;10.94
74321;BMP280;62738;45.772;4.804;2023-02-23T06:37:49;99345.84;;;10.99
74321;BMP280;62738;45.772;4.804;2023-02-23T06:40:16;99341.66;;;10.81
74321;BMP280;62738;45.772;4.804;2023-02-23T06:42:43;99348.16;;;10.93
74321;BMP280;62738;45.772;4.804;2023-02-23T06:45:10;99354.25;;;10.82
74321;BMP280;62738;45.772;4.804;2023-02-23T06:47:37;99353.19;;;11.04
74321;BMP280;62738;45.772;4.804;2023-02-23T06:50:03;99350.91;;;11.10
74321;BMP280;62738;45.772;4.804;2023-02-23T06:52:30;99361.34;;;11.02
74321;BMP280;62738;45.772;4.804;2023-02-23T06:54:57;99351.19;;;11.15
74321;BMP280;62738;45.772;4.804;2023-02-23T06:57:24;99360.44;;;10.73
74321;BMP280;62738;45.772;4.804;2023-02-23T06:59:51;99360.56;;;10.92
74321;BMP280;62738;45.772;4.804;2023-02-23T07:02:18;99356.09;;;10.80
74321;BMP280;62738;45.772;4.804;2023-02-23T07:04:45;99360.34;;;10.98
74321;BMP280;62738;45.772;4.804;2023-02-23T07:07:13;99356.84;;;11.07
74321;BMP280;62738;45.772;4.804;2023-02-23T07:09:40;99359.88;;;11.01
74321;BMP280;62738;45.772;4.804;2023-02-23T07:12:09;99362.16;;;11.13
74321;BMP280;62738;45.772;4.804;2023-02-23T07:14:36;99360.94;;;11.33
74321;BMP280;62738;45.772;4.804;2023-02-23T07:17:03;99362.81;;;11.57
74321;BMP280;62738;45.772;4.804;2023-02-23T07:19:31;99360.31;;;11.52
74321;BMP280;62738;45.772;4.804;2023-02-23T07:21:58;99366.16;;;11.56
74321;BMP280;62738;45.772;4.804;2023-02-23T07:24:24;99372.94;;;11.72
74321;BMP280;62738;45.772;4.804;2023-02-23T07:26:54;99369.72;;;11.75
74321;BMP280;62738;45.772;4.804;2023-02-23T07:29:20;99370.16;;;11.72
74321;BMP280;62738;45.772;4.804;2023-02-23T07:31:49;99374.47;;;12.11
74321;BMP280;62738;45.772;4.804;2023-02-23T07:34:16;99367.94;;;11.70
74321;BMP280;62738;45.772;4.804;2023-02-23T07:36:43;99372.84;;;11.99
74321;BMP280;62738;45.772;4.804;2023-02-23T07:39:10;99369.75;;;11.85
74321;BMP280;62738;45.772;4.804;2023-02-23T07:41:37;99372.81;;;11.79
74321;BMP280;62738;45.772;4.804;2023-02-23T07:44:04;99377.28;;;11.56
74321;BMP280;62738;45.772;4.804;2023-02-23T07:46:31;99381.81;;;11.24
74321;BMP280;62738;45.772;4.804;2023-02-23T07:48:57;99380.00;;;11.46
74321;BMP280;62738;45.772;4.804;2023-02-23T07:51:24;99370.50;;;11.85
74321;BMP280;62738;45.772;4.804;2023-02-23T07:53:51;99378.84;;;11.85
74321;BMP280;62738;45.772;4.804;2023-02-23T07:56:17;99382.72;;;11.27
74321;BMP280;62738;45.772;4.804;2023-02-23T07:58:44;99378.22;;;11.41
74321;BMP280;62738;45.772;4.804;2023-02-23T08:01:12;99379.63;;;11.69
74321;BMP280;62738;45.772;4.804;2023-02-23T08:03:38;99379.03;;;11.51
74321;BMP280;62738;45.772;4.804;2023-02-23T08:06:07;99374.03;;;11.23
74321;BMP280;62738;45.772;4.804;2023-02-23T08:08:34;99376.41;;;11.26
74321;BMP280;62738;45.772;4.804;2023-02-23T08:11:02;99374.03;;;11.49
74321;BMP280;62738;45.772;4.804;2023-02-23T08:13:30;99378.00;;;11.56
74321;BMP280;62738;45.772;4.804;2023-02-23T08:15:57;99380.84;;;11.39
74321;BMP280;62738;45.772;4.804;2023-02-23T08:18:25;99377.13;;;11.63
74321;BMP280;62738;45.772;4.804;2023-02-23T08:21:00;99376.44;;;11.72
74321;BMP280;62738;45.772;4.804;2023-02-23T08:23:31;99374.75;;;11.86
74321;BMP280;62738;45.772;4.804;2023-02-23T08:25:59;99374.75;;;11.86
74321;BMP280;62738;45.772;4.804;2023-02-23T08:28:26;99377.56;;;12.06
74321;BMP280;62738;45.772;4.804;2023-02-23T08:30:53;99376.69;;;12.13
74321;BMP280;62738;45.772;4.804;2023-02-23T08:33:21;99359.56;;;12.26
74321;BMP280;62738;45.772;4.804;2023-02-23T08:35:48;99374.91;;;11.98
74321;BMP280;62738;45.772;4.804;2023-02-23T08:38:14;99374.66;;;12.23
74321;BMP280;62738;45.772;4.804;2023-02-23T08:40:41;99379.75;;;12.26
74321;BMP280;62738;45.772;4.804;2023-02-23T08:43:08;99377.75;;;12.65
74321;BMP280;62738;45.772;4.804;2023-02-23T08:45:36;99369.25;;;12.73
74321;BMP280;62738;45.772;4.804;2023-02-23T08:48:05;99371.41;;;12.74
74321;BMP280;62738;45.772;4.804;2023-02-23T08:50:32;99382.69;;;12.86
74321;BMP280;62738;45.772;4.804;2023-02-23T08:52:59;99372.16;;;12.56
74321;BMP280;62738;45.772;4.804;2023-02-23T08:55:26;99389.44;;;12.16
74321;BMP280;62738;45.772;4.804;2023-02-23T08:57:52;99390.16;;;12.26
74321;BMP280;62738;45.772;4.804;2023-02-23T09:00:20;99393.25;;;12.40
74321;BMP280;62738;45.772;4.804;2023-02-23T09:02:47;99399.66;;;12.23
74321;BMP280;62738;45.772;4.804;2023-02-23T09:05:14;99402.91;;;12.19
74321;BMP280;62738;45.772;4.804;2023-02-23T09:07:41;99405.69;;;12.29
74321;BMP280;62738;45.772;4.804;2023-02-23T09:10:16;99411.41;;;12.41
74321;BMP280;62738;45.772;4.804;2023-02-23T09:12:45;99408.75;;;12.33
74321;BMP280;62738;45.772;4.804;2023-02-23T09:15:12;99405.72;;;12.48
74321;BMP280;62738;45.772;4.804;2023-02-23T09:17:39;99398.66;;;12.28
74321;BMP280;62738;45.772;4.804;2023-02-23T09:20:08;99403.63;;;12.20
74321;BMP280;62738;45.772;4.804;2023-02-23T09:22:39;99405.38;;;12.15
74321;BMP280;62738;45.772;4.804;2023-02-23T09:25:06;99411.25;;;12.19
74321;BMP280;62738;45.772;4.804;2023-02-23T09:27:33;99403.91;;;12.14
74321;BMP280;62738;45.772;4.804;2023-02-23T09:30:00;99412.28;;;12.24
74321;BMP280;62738;45.772;4.804;2023-02-23T09:32:27;99411.09;;;12.27
74321;BMP280;62738;45.772;4.804;2023-02-23T09:34:54;99409.50;;;12.24
74321;BMP280;62738;45.772;4.804;2023-02-23T09:37:20;99415.03;;;12.14
74321;BMP280;62738;45.772;4.804;2023-02-23T09:39:47;99411.53;;;12.23
74321;BMP280;62738;45.772;4.804;2023-02-23T09:42:44;99412.09;;;12.22
74321;BMP280;62738;45.772;4.804;2023-02-23T09:48:13;99409.66;;;12.16
74321;BMP280;62738;45.772;4.804;2023-02-23T09:50:48;99406.13;;;12.35
74321;BMP280;62738;45.772;4.804;2023-02-23T09:53:38;99406.84;;;12.26
74321;BMP280;62738;45.772;4.804;2023-02-23T09:56:12;99404.66;;;12.34
74321;BMP280;62738;45.772;4.804;2023-02-23T09:58:41;99400.41;;;12.33
74321;BMP280;62738;45.772;4.804;2023-02-23T10:16:02;99398.38;;;12.62
74321;BMP280;62738;45.772;4.804;2023-02-23T10:18:48;99395.16;;;12.56
74321;BMP280;62738;45.772;4.804;2023-02-23T10:21:29;99382.88;;;12.59
74321;BMP280;62738;45.772;4.804;2023-02-23T10:24:00;99382.53;;;12.84
74321;BMP280;62738;45.772;4.804;2023-02-23T10:26:48;99393.38;;;12.80
74321;BMP280;62738;45.772;4.804;2023-02-23T10:29:25;99390.91;;;12.74
74321;BMP280;62738;45.772;4.804;2023-02-23T10:32:02;99397.63;;;12.81
74321;BMP280;62738;45.772;4.804;2023-02-23T10:34:30;99393.97;;;12.69
74321;BMP280;62738;45.772;4.804;2023-02-23T10:37:00;99400.31;;;12.50
74321;BMP280;62738;45.772;4.804;2023-02-23T10:39:31;99400.00;;;12.37
74321;BMP280;62738;45.772;4.804;2023-02-23T10:42:02;99399.38;;;12.19
74321;BMP280;62738;45.772;4.804;2023-02-23T10:44:31;99401.59;;;12.20
74321;BMP280;62738;45.772;4.804;2023-02-23T10:47:01;99396.47;;;12.46
74321;BMP280;62738;45.772;4.804;2023-02-23T10:49:39;99394.44;;;12.65
74321;BMP280;62738;45.772;4.804;2023-02-23T10:52:10;99388.56;;;12.42
74321;BMP280;62738;45.772;4.804;2023-02-23T10:54:45;99395.00;;;12.35
74321;BMP280;62738;45.772;4.804;2023-02-23T11:02:54;99387.25;;;12.43
74321;BMP280;62738;45.772;4.804;2023-02-23T11:10:35;99378.31;;;12.73
74321;BMP280;62738;45.772;4.804;2023-02-23T11:13:02;99372.72;;;12.83
74321;BMP280;62738;45.772;4.804;2023-02-23T11:15:33;99372.72;;;12.83
74321;BMP280;62738;45.772;4.804;2023-02-23T11:18:21;99374.91;;;12.85
74321;BMP280;62738;45.772;4.804;2023-02-23T11:20:50;99373.03;;;12.78
74321;BMP280;62738;45.772;4.804;2023-02-23T11:23:24;99365.53;;;12.90
74321;BMP280;62738;45.772;4.804;2023-02-23T11:25:56;99369.63;;;12.89
74321;BMP280;62738;45.772;4.804;2023-02-23T11:28:31;99364.50;;;12.95
74321;BMP280;62738;45.772;4.804;2023-02-23T11:31:12;99360.53;;;12.98
74321;BMP280;62738;45.772;4.804;2023-02-23T11:33:41;99355.66;;;13.48
74321;BMP280;62738;45.772;4.804;2023-02-23T11:36:37;99355.84;;;13.41
74321;BMP280;62738;45.772;4.804;2023-02-23T11:39:16;99352.47;;;13.42
74321;BMP280;62738;45.772;4.804;2023-02-23T11:41:44;99352.84;;;13.48
74321;BMP280;62738;45.772;4.804;2023-02-23T11:44:23;99362.94;;;13.32
74321;BMP280;62738;45.772;4.804;2023-02-23T11:46:50;99351.06;;;13.22
74321;BMP280;62738;45.772;4.804;2023-02-23T11:49:27;99357.22;;;13.30
74321;BMP280;62738;45.772;4.804;2023-02-23T11:51:56;99355.09;;;13.40
74321;BMP280;62738;45.772;4.804;2023-02-23T11:54:28;99353.38;;;13.35
74321;BMP280;62738;45.772;4.804;2023-02-23T11:56:56;99354.09;;;13.36
74321;BMP280;62738;45.772;4.804;2023-02-23T11:59:37;99343.97;;;13.40
74321;BMP280;62738;45.772;4.804;2023-02-23T12:02:20;99351.84;;;13.44
74321;BMP280;62738;45.772;4.804;2023-02-23T12:04:50;99345.28;;;13.39
74321;BMP280;62738;45.772;4.804;2023-02-23T12:07:24;99344.44;;;13.37
74321;BMP280;62738;45.772;4.804;2023-02-23T12:12:51;99323.56;;;13.69
74321;BMP280;62738;45.772;4.804;2023-02-23T12:15:31;99316.59;;;13.79
74321;BMP280;62738;45.772;4.804;2023-02-23T12:18:29;99303.50;;;14.03
74321;BMP280;62738;45.772;4.804;2023-02-23T12:20:55;99305.94;;;14.09
74321;BMP280;62738;45.772;4.804;2023-02-23T12:23:29;99289.44;;;14.34
74321;BMP280;62738;45.772;4.804;2023-02-23T12:26:04;99291.50;;;14.33
74321;BMP280;62738;45.772;4.804;2023-02-23T12:28:47;99290.50;;;14.29
74321;BMP280;62738;45.772;4.804;2023-02-23T12:31:37;99273.66;;;14.38
74321;BMP280;62738;45.772;4.804;2023-02-23T12:34:15;99281.75;;;14.23
74321;BMP280;62738;45.772;4.804;2023-02-23T12:36:49;99277.16;;;13.94
74321;BMP280;62738;45.772;4.804;2023-02-23T12:39:35;99276.56;;;13.75
74321;BMP280;62738;45.772;4.804;2023-02-23T12:42:13;99276.84;;;14.00
74321;BMP280;62738;45.772;4.804;2023-02-23T12:44:48;99275.00;;;14.26
74321;BMP280;62738;45.772;4.804;2023-02-23T12:47:33;99271.38;;;14.46
74321;BMP280;62738;45.772;4.804;2023-02-23T12:50:10;99269.56;;;14.51
74321;BMP280;62738;45.772;4.804;2023-02-23T12:52:49;99265.22;;;14.60
74321;BMP280;62738;45.772;4.804;2023-02-23T12:55:32;99271.16;;;14.54
74321;BMP280;62738;45.772;4.804;2023-02-23T12:58:38;99269.06;;;14.31
74321;BMP280;62738;45.772;4.804;2023-02-23T13:06:56;99266.00;;;14.27
74321;BMP280;62738;45.772;4.804;2023-02-23T13:12:18;99264.25;;;14.67
74321;BMP280;62738;45.772;4.804;2023-02-23T13:17:39;99254.09;;;14.83
74321;BMP280;62738;45.772;4.804;2023-02-23T13:20:22;99245.84;;;14.85
74321;BMP280;62738;45.772;4.804;2023-02-23T13:22:59;99246.06;;;14.77
74321;BMP280;62738;45.772;4.804;2023-02-23T13:25:39;99251.38;;;14.62
74321;BMP280;62738;45.772;4.804;2023-02-23T13:28:14;99243.16;;;14.64
74321;BMP280;62738;45.772;4.804;2023-02-23T13:30:43;99240.69;;;14.70
74321;BMP280;62738;45.772;4.804;2023-02-23T13:33:24;99238.16;;;14.74
74321;BMP280;62738;45.772;4.804;2023-02-23T13:36:07;99230.41;;;14.84
74321;BMP280;62738;45.772;4.804;2023-02-23T13:44:30;99234.41;;;14.93
74321;BMP280;62738;45.772;4.804;2023-02-23T13:47:05;99224.31;;;14.99
74321;BMP280;62738;45.772;4.804;2023-02-23T13:49:37;99227.22;;;15.24
74321;BMP280;62738;45.772;4.804;2023-02-23T13:52:15;99216.25;;;15.28
74321;BMP280;62738;45.772;4.804;2023-02-23T13:54:54;99216.38;;;15.30
74321;BMP280;62738;45.772;4.804;2023-02-23T13:57:25;99213.44;;;15.40
74321;BMP280;62738;45.772;4.804;2023-02-23T13:59:53;99212.19;;;15.55
74321;BMP280;62738;45.772;4.804;2023-02-23T14:02:34;99208.56;;;15.52
74321;BMP280;62738;45.772;4.804;2023-02-23T14:05:15;99207.03;;;15.63
74321;BMP280;62738;45.772;4.804;2023-02-23T14:07:46;99213.50;;;15.54
74321;BMP280;62738;45.772;4.804;2023-02-23T14:10:23;99208.50;;;15.64
74321;BMP280;62738;45.772;4.804;2023-02-23T14:21:12;99200.44;;;15.95
74321;BMP280;62738;45.772;4.804;2023-02-23T14:23:51;99202.22;;;15.77
74321;BMP280;62738;45.772;4.804;2023-02-23T14:29:25;99195.75;;;15.86
74321;BMP280;62738;45.772;4.804;2023-02-23T14:31:55;99197.06;;;15.60
74321;BMP280;62738;45.772;4.804;2023-02-23T14:34:45;99202.56;;;15.58
74321;BMP280;62738;45.772;4.804;2023-02-23T14:39:48;99199.25;;;15.61
74321;BMP280;62738;45.772;4.804;2023-02-23T14:42:21;99205.78;;;15.66
74321;BMP280;62738;45.772;4.804;2023-02-23T14:44:49;99190.59;;;15.69
74321;BMP280;62738;45.772;4.804;2023-02-23T14:47:19;99188.16;;;15.75
74321;BMP280;62738;45.772;4.804;2023-02-23T14:49:54;99198.44;;;15.84
74321;BMP280;62738;45.772;4.804;2023-02-23T14:52:27;99195.53;;;15.82
74321;BMP280;62738;45.772;4.804;2023-02-23T14:55:18;99184.63;;;15.74
74321;BMP280;62738;45.772;4.804;2023-02-23T14:57:46;99192.16;;;15.72
74321;BMP280;62738;45.772;4.804;2023-02-23T15:02:53;99189.44;;;15.86
74321;BMP280;62738;45.772;4.804;2023-02-23T15:05:23;99187.44;;;15.88
74321;BMP280;62738;45.772;4.804;2023-02-23T15:07:50;99183.31;;;15.89
74321;BMP280;62738;45.772;4.804;2023-02-23T15:10:23;99175.47;;;15.99
74321;BMP280;62738;45.772;4.804;2023-02-23T15:12:52;99171.00;;;15.94
74321;BMP280;62738;45.772;4.804;2023-02-23T15:15:22;99174.91;;;15.89
74321;BMP280;62738;45.772;4.804;2023-02-23T15:17:52;99167.22;;;16.15
74321;BMP280;62738;45.772;4.804;2023-02-23T15:20:22;99167.06;;;15.99
74321;BMP280;62738;45.772;4.804;2023-02-23T15:23:00;99163.72;;;15.89
74321;BMP280;62738;45.772;4.804;2023-02-23T15:25:36;99168.72;;;15.91
74321;BMP280;62738;45.772;4.804;2023-02-23T15:28:21;99167.81;;;16.00
74321;BMP280;62738;45.772;4.804;2023-02-23T15:30:49;99171.56;;;16.04
74321;BMP280;62738;45.772;4.804;2023-02-23T15:33:17;99175.03;;;15.91
74321;BMP280;62738;45.772;4.804;2023-02-23T15:38:44;99170.94;;;16.19
74321;BMP280;62738;45.772;4.804;2023-02-23T15:41:21;99166.28;;;16.10
74321;BMP280;62738;45.772;4.804;2023-02-23T15:43:50;99162.03;;;16.09
74321;BMP280;62738;45.772;4.804;2023-02-23T15:46:23;99170.34;;;16.07
74321;BMP280;62738;45.772;4.804;2023-02-23T15:48:53;99165.56;;;16.10
74321;BMP280;62738;45.772;4.804;2023-02-23T15:51:30;99162.81;;;16.37
74321;BMP280;62738;45.772;4.804;2023-02-23T15:53:59;99155.81;;;16.24
74321;BMP280;62738;45.772;4.804;2023-02-23T15:56:28;99155.31;;;16.14
74321;BMP280;62738;45.772;4.804;2023-02-23T15:59:01;99160.25;;;16.02
74321;BMP280;62738;45.772;4.804;2023-02-23T16:01:30;99165.53;;;15.96
74321;BMP280;62738;45.772;4.804;2023-02-23T16:04:01;99165.63;;;15.98
74321;BMP280;62738;45.772;4.804;2023-02-23T16:06:34;99159.84;;;16.08
74321;BMP280;62738;45.772;4.804;2023-02-23T16:11:33;99158.47;;;15.95
74321;BMP280;62738;45.772;4.804;2023-02-23T16:14:02;99157.22;;;15.85
74321;BMP280;62738;45.772;4.804;2023-02-23T16:16:33;99164.75;;;15.82
74321;BMP280;62738;45.772;4.804;2023-02-23T16:19:01;99161.66;;;15.64
74321;BMP280;62738;45.772;4.804;2023-02-23T16:21:30;99164.69;;;15.68
74321;BMP280;62738;45.772;4.804;2023-02-23T16:23:58;99162.13;;;15.72
74321;BMP280;62738;45.772;4.804;2023-02-23T16:26:33;99162.72;;;15.71